createdAt,value
2016-02-17T00:00:41.952Z,0
2016-02-17T00:01:42.016Z,0
2016-02-17T00:02:42.082Z,0
2016-02-17T00:03:42.115Z,0
2016-02-17T00:04:42.181Z,0
2016-02-17T00:05:42.216Z,0
2016-02-17T00:06:42.249Z,0
2016-02-17T00:07:42.299Z,0
2016-02-17T00:08:42.348Z,0
2016-02-17T00:09:42.413Z,0
2016-02-17T00:10:42.462Z,0
2016-02-17T00:11:42.513Z,0
2016-02-17T00:12:42.562Z,0
2016-02-17T00:13:42.627Z,0
2016-02-17T00:14:42.677Z,0
2016-02-17T00:15:42.710Z,0
2016-02-17T00:16:42.776Z,0
2016-02-17T00:17:42.809Z,0
2016-02-17T00:18:42.875Z,0
2016-02-17T00:19:42.909Z,0
2016-02-17T00:20:42.973Z,0
2016-02-17T00:21:43.023Z,0
2016-02-17T00:22:43.058Z,0
2016-02-17T00:23:43.122Z,0
2016-02-17T00:24:43.219Z,0
2016-02-17T00:25:43.222Z,0
2016-02-17T00:26:43.272Z,0
2016-02-17T00:27:43.322Z,0
2016-02-17T00:28:43.355Z,0
2016-02-17T00:29:43.405Z,0
2016-02-17T00:30:43.490Z,0
2016-02-17T00:31:43.508Z,0
2016-02-17T00:32:43.558Z,0
2016-02-17T00:33:43.624Z,0
2016-02-17T00:34:43.673Z,0
2016-02-17T00:35:43.707Z,0
2016-02-17T00:36:43.788Z,0
2016-02-17T00:37:43.821Z,0
2016-02-17T00:38:43.871Z,0
2016-02-17T00:39:43.920Z,0
2016-02-17T00:40:43.971Z,0
2016-02-17T00:41:44.004Z,0
2016-02-17T00:42:44.054Z,0
2016-02-17T00:43:44.150Z,0
2016-02-17T00:44:44.184Z,0
2016-02-17T00:45:44.234Z,0
2016-02-17T00:46:44.252Z,0
2016-02-17T00:47:44.333Z,0
2016-02-17T00:48:44.242Z,0
2016-02-17T00:49:44.432Z,0
2016-02-17T00:50:44.466Z,0
2016-02-17T00:51:44.531Z,0
2016-02-17T00:52:44.564Z,0
2016-02-17T00:53:44.615Z,0
2016-02-17T00:54:44.680Z,0
2016-02-17T00:55:44.714Z,0
2016-02-17T00:56:44.778Z,0
2016-02-17T00:57:44.828Z,0
2016-02-17T00:58:44.878Z,0
2016-02-17T00:59:44.927Z,0
2016-02-17T01:00:44.993Z,0
2016-02-17T01:01:45.027Z,0
2016-02-17T01:02:45.077Z,0
2016-02-17T01:03:45.126Z,0
2016-02-17T01:04:45.175Z,0
2016-02-17T01:05:45.240Z,0
2016-02-17T01:06:45.119Z,0
2016-02-17T01:07:45.324Z,0
2016-02-17T01:08:45.405Z,0
2016-02-17T01:09:45.438Z,0
2016-02-17T01:10:45.363Z,0
2016-02-17T01:11:45.523Z,0
2016-02-17T01:12:44.821Z,0
2016-02-17T01:13:45.637Z,0
2016-02-17T01:14:45.687Z,0
2016-02-17T01:15:45.720Z,0
2016-02-17T01:16:45.770Z,0
2016-02-17T01:17:45.835Z,0
2016-02-17T01:18:45.932Z,0
2016-02-17T01:19:45.950Z,0
2016-02-17T01:20:46.015Z,0
2016-02-17T01:21:46.017Z,0
2016-02-17T01:22:46.068Z,0
2016-02-17T01:23:46.133Z,0
2016-02-17T01:24:46.167Z,0
2016-02-17T01:25:46.232Z,0
2016-02-17T01:26:46.281Z,0
2016-02-17T01:27:46.331Z,0
2016-02-17T01:28:46.412Z,0
2016-02-17T01:29:46.446Z,0
2016-02-17T01:30:46.480Z,0
2016-02-17T01:31:46.389Z,0
2016-02-17T01:32:46.579Z,0
2016-02-17T01:33:46.644Z,0
2016-02-17T01:34:46.693Z,0
2016-02-17T01:35:46.759Z,0
2016-02-17T01:36:46.793Z,0
2016-02-17T01:37:46.827Z,0
2016-02-17T01:38:46.876Z,0
2016-02-17T01:39:46.941Z,0
2016-02-17T01:40:46.991Z,0
2016-02-17T01:41:47.040Z,0
2016-02-17T01:42:46.340Z,0
2016-02-17T01:43:47.140Z,0
2016-02-17T01:44:47.174Z,0
2016-02-17T01:45:47.239Z,0
2016-02-17T01:46:47.304Z,0
2016-02-17T01:47:47.323Z,0
2016-02-17T01:48:47.387Z,0
2016-02-17T01:49:47.421Z,0
2016-02-17T01:50:47.486Z,0
2016-02-17T01:51:47.551Z,0
2016-02-17T01:52:47.601Z,0
2016-02-17T01:53:47.651Z,0
2016-02-17T01:54:47.700Z,0
2016-02-17T01:55:47.750Z,0
2016-02-17T01:56:47.800Z,0
2016-02-17T01:57:47.850Z,0
2016-02-17T01:58:47.899Z,0
2016-02-17T01:59:47.964Z,0
2016-02-17T02:00:48.014Z,0
2016-02-17T02:01:48.063Z,0
2016-02-17T02:02:48.128Z,0
2016-02-17T02:03:48.162Z,0
2016-02-17T02:04:48.290Z,0
2016-02-17T02:05:48.246Z,0
2016-02-17T02:06:47.545Z,0
2016-02-17T02:07:48.330Z,0
2016-02-17T02:08:48.379Z,0
2016-02-17T02:09:48.429Z,0
2016-02-17T02:10:48.478Z,0
2016-02-17T02:11:48.543Z,0
2016-02-17T02:12:48.577Z,0
2016-02-17T02:13:48.643Z,0
2016-02-17T02:14:48.707Z,0
2016-02-17T02:15:48.757Z,0
2016-02-17T02:16:48.807Z,0
2016-02-17T02:17:48.872Z,0
2016-02-17T02:18:48.890Z,0
2016-02-17T02:19:48.939Z,0
2016-02-17T02:20:48.989Z,0
2016-02-17T02:21:49.039Z,0
2016-02-17T02:22:49.073Z,0
2016-02-17T02:23:49.137Z,0
2016-02-17T02:24:49.187Z,0
2016-02-17T02:25:49.238Z,0
2016-02-17T02:26:49.288Z,0
2016-02-17T02:27:49.337Z,0
2016-02-17T02:28:49.387Z,0
2016-02-17T02:29:49.452Z,0
2016-02-17T02:30:49.486Z,0
2016-02-17T02:31:49.379Z,0
2016-02-17T02:32:49.600Z,0
2016-02-17T02:33:49.635Z,0
2016-02-17T02:34:49.528Z,0
2016-02-17T02:35:49.750Z,0
2016-02-17T02:36:49.798Z,0
2016-02-17T02:37:49.848Z,0
2016-02-17T02:38:49.898Z,0
2016-02-17T02:39:49.947Z,0
2016-02-17T02:40:49.997Z,0
2016-02-17T02:41:50.047Z,0
2016-02-17T02:42:50.097Z,0
2016-02-17T02:43:50.146Z,0
2016-02-17T02:44:50.195Z,0
2016-02-17T02:45:50.245Z,0
2016-02-17T02:46:50.295Z,0
2016-02-17T02:47:50.344Z,0
2016-02-17T02:48:50.394Z,0
2016-02-17T02:49:50.443Z,0
2016-02-17T02:50:50.508Z,0
2016-02-17T02:51:50.543Z,0
2016-02-17T02:52:50.607Z,0
2016-02-17T02:53:50.641Z,0
2016-02-17T02:54:50.691Z,0
2016-02-17T02:55:50.757Z,0
2016-02-17T02:56:50.838Z,0
2016-02-17T02:57:50.871Z,0
2016-02-17T02:58:50.890Z,0
2016-02-17T02:59:50.939Z,0
2016-02-17T03:00:50.988Z,0
2016-02-17T03:01:51.053Z,0
2016-02-17T03:02:51.104Z,0
2016-02-17T03:03:51.153Z,0
2016-02-17T03:04:51.203Z,0
2016-02-17T03:05:51.283Z,0
2016-02-17T03:06:51.317Z,0
2016-02-17T03:07:51.382Z,0
2016-02-17T03:08:51.416Z,0
2016-02-17T03:09:51.481Z,0
2016-02-17T03:10:51.500Z,0
2016-02-17T03:11:51.534Z,0
2016-02-17T03:12:51.614Z,0
2016-02-17T03:13:51.633Z,0
2016-02-17T03:14:51.713Z,0
2016-02-17T03:15:51.764Z,0
2016-02-17T03:16:51.813Z,0
2016-02-17T03:17:51.831Z,0
2016-02-17T03:18:51.911Z,0
2016-02-17T03:19:51.946Z,0
2016-02-17T03:20:52.027Z,0
2016-02-17T03:21:52.076Z,0
2016-02-17T03:22:52.110Z,0
2016-02-17T03:23:52.129Z,0
2016-02-17T03:24:52.210Z,0
2016-02-17T03:25:52.274Z,0
2016-02-17T03:26:52.293Z,0
2016-02-17T03:27:52.343Z,0
2016-02-17T03:28:52.423Z,0
2016-02-17T03:29:52.441Z,0
2016-02-17T03:30:52.522Z,0
2016-02-17T03:31:52.557Z,0
2016-02-17T03:32:52.606Z,0
2016-02-17T03:33:52.656Z,0
2016-02-17T03:34:52.721Z,0
2016-02-17T03:35:52.754Z,0
2016-02-17T03:36:52.835Z,0
2016-02-17T03:37:52.853Z,0
2016-02-17T03:38:52.934Z,0
2016-02-17T03:39:52.953Z,0
2016-02-17T03:40:53.034Z,0
2016-02-17T03:41:53.052Z,0
2016-02-17T03:42:53.133Z,0
2016-02-17T03:43:53.135Z,0
2016-02-17T03:44:53.216Z,0
2016-02-17T03:45:53.250Z,0
2016-02-17T03:46:53.300Z,0
2016-02-17T03:47:53.364Z,0
2016-02-17T03:48:53.399Z,0
2016-02-17T03:49:53.464Z,0
2016-02-17T03:50:53.529Z,0
2016-02-17T03:51:52.813Z,0
2016-02-17T03:52:53.597Z,0
2016-02-17T03:53:53.647Z,0
2016-02-17T03:54:53.712Z,0
2016-02-17T03:55:53.746Z,0
2016-02-17T03:56:53.811Z,0
2016-02-17T03:57:53.860Z,0
2016-02-17T03:58:53.894Z,0
2016-02-17T03:59:53.959Z,0
2016-02-17T04:00:54.010Z,0
2016-02-17T04:01:54.043Z,0
2016-02-17T04:02:54.093Z,0
2016-02-17T04:03:54.174Z,0
2016-02-17T04:04:54.223Z,0
2016-02-17T04:05:54.257Z,0
2016-02-17T04:06:54.322Z,0
2016-02-17T04:07:54.356Z,0
2016-02-17T04:08:54.250Z,0
2016-02-17T04:09:54.503Z,0
2016-02-17T04:10:54.489Z,0
2016-02-17T04:11:54.570Z,0
2016-02-17T04:12:54.603Z,0
2016-02-17T04:13:54.669Z,0
2016-02-17T04:14:54.703Z,0
2016-02-17T04:15:54.769Z,0
2016-02-17T04:16:54.833Z,0
2016-02-17T04:17:54.867Z,0
2016-02-17T04:18:54.917Z,0
2016-02-17T04:19:54.966Z,0
2016-02-17T04:20:55.016Z,0
2016-02-17T04:21:55.066Z,0
2016-02-17T04:22:55.100Z,0
2016-02-17T04:23:55.180Z,0
2016-02-17T04:24:55.246Z,0
2016-02-17T04:25:55.296Z,0
2016-02-17T04:26:55.313Z,0
2016-02-17T04:27:55.379Z,0
2016-02-17T04:28:55.412Z,0
2016-02-17T04:29:55.509Z,0
2016-02-17T04:30:55.512Z,0
2016-02-17T04:32:15.827Z,0
2016-02-17T04:32:55.643Z,0
2016-02-17T04:33:55.692Z,0
2016-02-17T04:34:55.741Z,0
2016-02-17T04:35:55.618Z,0
2016-02-17T04:36:55.809Z,0
2016-02-17T04:37:55.859Z,0
2016-02-17T04:38:55.940Z,0
2016-02-17T04:39:55.973Z,0
2016-02-17T04:40:56.007Z,0
2016-02-17T04:41:56.041Z,0
2016-02-17T04:42:56.106Z,0
2016-02-17T04:43:56.156Z,0
2016-02-17T04:44:56.236Z,0
2016-02-17T04:45:56.256Z,0
2016-02-17T04:46:56.336Z,0
2016-02-17T04:47:56.339Z,0
2016-02-17T04:48:56.404Z,0
2016-02-17T04:49:56.469Z,0
2016-02-17T04:50:56.503Z,0
2016-02-17T04:51:56.537Z,0
2016-02-17T04:52:56.633Z,0
2016-02-17T04:53:56.636Z,0
2016-02-17T04:54:56.733Z,0
2016-02-17T04:55:56.751Z,0
2016-02-17T04:56:56.816Z,0
2016-02-17T04:57:56.849Z,0
2016-02-17T04:58:56.930Z,0
2016-02-17T04:59:56.199Z,0
2016-02-17T05:00:57.015Z,0
2016-02-17T05:01:57.049Z,0
2016-02-17T05:02:57.113Z,0
2016-02-17T05:03:57.179Z,0
2016-02-17T05:04:57.212Z,0
2016-02-17T05:05:57.246Z,0
2016-02-17T05:06:57.312Z,0
2016-02-17T05:07:57.346Z,0
2016-02-17T05:08:57.427Z,0
2016-02-17T05:09:57.445Z,0
2016-02-17T05:10:57.557Z,0
2016-02-17T05:11:57.559Z,0
2016-02-17T05:12:57.640Z,0
2016-02-17T05:13:57.658Z,0
2016-02-17T05:14:57.724Z,0
2016-02-17T05:15:57.742Z,0
2016-02-17T05:16:57.839Z,0
2016-02-17T05:17:57.857Z,0
2016-02-17T05:18:57.906Z,0
2016-02-17T05:19:57.941Z,0
2016-02-17T05:20:58.005Z,0
2016-02-17T05:21:58.055Z,0
2016-02-17T05:22:58.105Z,0
2016-02-17T05:23:58.186Z,0
2016-02-17T05:24:58.189Z,0
2016-02-17T05:25:58.238Z,0
2016-02-17T05:26:58.303Z,0
2016-02-17T05:27:58.368Z,0
2016-02-17T05:28:58.433Z,0
2016-02-17T05:29:58.468Z,0
2016-02-17T05:30:58.517Z,0
2016-02-17T05:31:58.582Z,0
2016-02-17T05:32:58.616Z,0
2016-02-17T05:33:58.681Z,0
2016-02-17T05:34:58.731Z,0
2016-02-17T05:35:58.765Z,0
2016-02-17T05:36:58.783Z,0
2016-02-17T05:37:58.865Z,0
2016-02-17T05:38:58.913Z,0
2016-02-17T05:39:58.963Z,0
2016-02-17T05:40:59.012Z,0
2016-02-17T05:41:59.078Z,0
2016-02-17T05:42:59.095Z,0
2016-02-17T05:43:59.177Z,0
2016-02-17T05:44:59.195Z,0
2016-02-17T05:45:59.261Z,0
2016-02-17T05:46:59.295Z,0
2016-02-17T05:47:59.359Z,0
2016-02-17T05:48:59.394Z,0
2016-02-17T05:49:59.442Z,0
2016-02-17T05:50:59.508Z,0
2016-02-17T05:51:59.558Z,0
2016-02-17T05:52:59.592Z,0
2016-02-17T05:53:59.642Z,0
2016-02-17T05:54:59.706Z,0
2016-02-17T05:55:59.741Z,0
2016-02-17T05:56:59.805Z,0
2016-02-17T05:57:59.855Z,0
2016-02-17T05:58:59.920Z,0
2016-02-17T05:59:59.955Z,0
2016-02-17T06:01:00.005Z,0
2016-02-17T06:02:00.054Z,0
2016-02-17T06:03:00.102Z,0
2016-02-17T06:04:00.152Z,0
2016-02-17T06:05:00.218Z,0
2016-02-17T06:06:00.235Z,0
2016-02-17T06:07:00.302Z,0
2016-02-17T06:08:00.351Z,0
2016-02-17T06:09:00.401Z,0
2016-02-17T06:10:00.465Z,0
2016-02-17T06:11:00.515Z,0
2016-02-17T06:12:00.596Z,0
2016-02-17T06:13:00.958Z,0
2016-02-17T06:14:00.649Z,0
2016-02-17T06:15:00.573Z,0
2016-02-17T06:16:00.747Z,0
2016-02-17T06:17:00.812Z,0
2016-02-17T06:18:00.847Z,0
2016-02-17T06:19:00.896Z,0
2016-02-17T06:20:00.931Z,0
2016-02-17T06:21:01.011Z,0
2016-02-17T06:22:01.060Z,0
2016-02-17T06:23:01.095Z,0
2016-02-17T06:24:01.145Z,0
2016-02-17T06:25:01.209Z,0
2016-02-17T06:26:01.228Z,0
2016-02-17T06:27:01.308Z,0
2016-02-17T06:28:01.358Z,0
2016-02-17T06:29:01.407Z,0
2016-02-17T06:30:01.425Z,0
2016-02-17T06:31:01.538Z,0
2016-02-17T06:32:01.556Z,0
2016-02-17T06:33:01.591Z,0
2016-02-17T06:34:01.671Z,0
2016-02-17T06:35:01.689Z,0
2016-02-17T06:36:01.754Z,0
2016-02-17T06:37:01.804Z,0
2016-02-17T06:38:01.821Z,0
2016-02-17T06:39:01.904Z,0
2016-02-17T06:40:01.953Z,0
2016-02-17T06:41:01.987Z,0
2016-02-17T06:42:02.037Z,0
2016-02-17T06:43:02.117Z,0
2016-02-17T06:44:02.135Z,0
2016-02-17T06:45:02.200Z,0
2016-02-17T06:46:02.234Z,0
2016-02-17T06:47:02.301Z,0
2016-02-17T06:48:02.381Z,0
2016-02-17T06:49:02.368Z,0
2016-02-17T06:50:02.464Z,0
2016-02-17T06:51:01.748Z,0
2016-02-17T06:52:02.564Z,0
2016-02-17T06:53:02.597Z,0
2016-02-17T06:54:02.646Z,0
2016-02-17T06:55:02.697Z,0
2016-02-17T06:56:02.731Z,0
2016-02-17T06:57:02.795Z,0
2016-02-17T06:58:02.860Z,0
2016-02-17T06:59:02.894Z,0
2016-02-17T07:00:02.944Z,0
2016-02-17T07:01:03.024Z,0
2016-02-17T07:02:03.059Z,0
2016-02-17T07:03:03.094Z,0
2016-02-17T07:04:03.173Z,0
2016-02-17T07:05:03.223Z,0
2016-02-17T07:06:03.257Z,0
2016-02-17T07:07:03.166Z,0
2016-02-17T07:08:03.357Z,0
2016-02-17T07:09:03.391Z,0
2016-02-17T07:10:03.471Z,0
2016-02-17T07:11:03.490Z,0
2016-02-17T07:12:03.539Z,0
2016-02-17T07:13:03.604Z,0
2016-02-17T07:14:03.638Z,0
2016-02-17T07:15:03.687Z,0
2016-02-17T07:16:03.754Z,4
2016-02-17T07:17:03.787Z,4
2016-02-17T07:18:03.820Z,0
2016-02-17T07:19:03.917Z,0
2016-02-17T07:20:03.935Z,0
2016-02-17T07:21:03.984Z,0
2016-02-17T07:22:04.066Z,0
2016-02-17T07:23:04.083Z,0
2016-02-17T07:24:04.134Z,0
2016-02-17T07:25:04.214Z,0
2016-02-17T07:26:04.233Z,0
2016-02-17T07:27:04.298Z,0
2016-02-17T07:28:04.331Z,0
2016-02-17T07:29:04.397Z,0
2016-02-17T07:30:04.447Z,0
2016-02-17T07:31:04.543Z,0
2016-02-17T07:32:04.547Z,0
2016-02-17T07:33:04.580Z,0
2016-02-17T07:34:04.630Z,0
2016-02-17T07:35:04.710Z,0
2016-02-17T07:36:04.728Z,0
2016-02-17T07:37:04.794Z,4
2016-02-17T07:38:04.843Z,4
2016-02-17T07:39:04.877Z,4
2016-02-17T07:40:04.958Z,4
2016-02-17T07:41:05.024Z,4
2016-02-17T07:42:05.026Z,4
2016-02-17T07:43:05.091Z,4
2016-02-17T07:44:05.219Z,4
2016-02-17T07:45:05.174Z,4
2016-02-17T07:46:05.239Z,60
2016-02-17T07:47:05.305Z,72
2016-02-17T07:48:05.339Z,76
2016-02-17T07:49:05.370Z,72
2016-02-17T07:50:05.417Z,72
2016-02-17T07:51:05.467Z,76
2016-02-17T07:52:05.484Z,76
2016-02-17T07:53:05.534Z,76
2016-02-17T07:54:05.600Z,76
2016-02-17T07:55:05.611Z,76
2016-02-17T07:56:05.641Z,80
2016-02-17T07:57:05.684Z,80
2016-02-17T07:58:05.727Z,84
2016-02-17T07:59:05.772Z,92
2016-02-17T08:00:05.835Z,112
2016-02-17T08:01:05.851Z,140
2016-02-17T08:02:05.916Z,172
2016-02-17T08:03:05.978Z,140
2016-02-17T08:04:05.996Z,124
2016-02-17T08:05:06.075Z,156
2016-02-17T08:06:06.140Z,280
2016-02-17T08:07:06.142Z,372
2016-02-17T08:08:06.206Z,400
2016-02-17T08:09:06.271Z,392
2016-02-17T08:10:06.288Z,376
2016-02-17T08:11:06.337Z,356
2016-02-17T08:12:06.418Z,340
2016-02-17T08:13:06.451Z,324
2016-02-17T08:14:05.735Z,304
2016-02-17T08:15:06.535Z,288
2016-02-17T08:16:06.599Z,276
2016-02-17T08:17:06.619Z,256
2016-02-17T08:18:06.683Z,240
2016-02-17T08:19:09.046Z,224
2016-02-17T08:20:06.782Z,208
2016-02-17T08:21:07.363Z,188
2016-02-17T08:22:06.882Z,164
2016-02-17T08:23:07.884Z,140
2016-02-17T08:24:08.763Z,136
2016-02-17T08:25:07.015Z,120
2016-02-17T08:26:07.065Z,108
2016-02-17T08:27:08.130Z,100
2016-02-17T08:28:09.336Z,92
2016-02-17T08:29:09.213Z,88
2016-02-17T08:30:09.044Z,88
2016-02-17T08:31:07.579Z,88
2016-02-17T08:32:07.362Z,88
2016-02-17T08:33:07.708Z,84
2016-02-17T08:34:07.462Z,80
2016-02-17T08:35:07.510Z,84
2016-02-17T08:36:07.545Z,72
2016-02-17T08:37:08.484Z,52
2016-02-17T08:38:07.672Z,68
2016-02-17T08:39:07.690Z,44
2016-02-17T08:40:07.740Z,80
2016-02-17T08:41:07.806Z,76
2016-02-17T08:42:07.855Z,76
2016-02-17T08:43:07.889Z,80
2016-02-17T08:44:07.939Z,76
2016-02-17T08:45:08.004Z,80
2016-02-17T08:46:08.038Z,80
2016-02-17T08:47:08.087Z,80
2016-02-17T08:48:08.137Z,80
2016-02-17T08:49:08.187Z,76
2016-02-17T08:50:08.236Z,84
2016-02-17T08:51:08.286Z,80
2016-02-17T08:52:08.350Z,76
2016-02-17T08:53:08.385Z,80
2016-02-17T08:54:08.433Z,76
2016-02-17T08:55:08.483Z,76
2016-02-17T08:56:08.533Z,76
2016-02-17T08:57:08.583Z,52
2016-02-17T08:58:08.633Z,40
2016-02-17T08:59:08.682Z,68
2016-02-17T09:00:08.732Z,64
2016-02-17T09:01:08.781Z,68
2016-02-17T09:02:08.815Z,68
2016-02-17T09:03:08.896Z,68
2016-02-17T09:04:08.930Z,64
2016-02-17T09:05:08.964Z,68
2016-02-17T09:06:09.029Z,76
2016-02-17T09:07:09.079Z,84
2016-02-17T09:08:09.112Z,92
2016-02-17T09:09:09.162Z,104
2016-02-17T09:10:09.243Z,108
2016-02-17T09:11:09.261Z,116
2016-02-17T09:12:09.311Z,116
2016-02-17T09:13:09.375Z,116
2016-02-17T09:14:09.410Z,116
2016-02-17T09:15:09.460Z,120
2016-02-17T09:16:09.525Z,116
2016-02-17T09:17:09.575Z,112
2016-02-17T09:18:09.623Z,112
2016-02-17T09:19:09.658Z,116
2016-02-17T09:20:09.707Z,112
2016-02-17T09:21:09.756Z,112
2016-02-17T09:22:09.791Z,112
2016-02-17T09:23:09.855Z,112
2016-02-17T09:24:09.906Z,112
2016-02-17T09:25:09.955Z,112
2016-02-17T09:26:10.052Z,112
2016-02-17T09:27:10.054Z,112
2016-02-17T09:28:10.104Z,116
2016-02-17T09:29:10.152Z,112
2016-02-17T09:30:10.219Z,112
2016-02-17T09:31:10.252Z,112
2016-02-17T09:32:10.318Z,112
2016-02-17T09:33:10.367Z,112
2016-02-17T09:34:10.401Z,116
2016-02-17T09:35:10.451Z,120
2016-02-17T09:36:10.515Z,116
2016-02-17T09:37:10.550Z,116
2016-02-17T09:38:10.616Z,116
2016-02-17T09:39:10.649Z,116
2016-02-17T09:40:10.699Z,120
2016-02-17T09:41:10.748Z,116
2016-02-17T09:42:10.798Z,120
2016-02-17T09:43:10.863Z,120
2016-02-17T09:44:10.897Z,120
2016-02-17T09:45:10.946Z,120
2016-02-17T09:46:11.011Z,120
2016-02-17T09:47:11.061Z,116
2016-02-17T09:48:11.111Z,116
2016-02-17T09:49:11.145Z,116
2016-02-17T09:50:11.194Z,112
2016-02-17T09:51:11.275Z,112
2016-02-17T09:52:11.309Z,112
2016-02-17T09:53:11.359Z,112
2016-02-17T09:54:11.408Z,112
2016-02-17T09:55:11.458Z,116
2016-02-17T09:56:11.522Z,112
2016-02-17T09:57:11.541Z,112
2016-02-17T09:58:11.622Z,112
2016-02-17T09:59:11.656Z,112
2016-02-17T10:00:11.706Z,112
2016-02-17T10:01:11.755Z,116
2016-02-17T10:02:11.789Z,120
2016-02-17T10:03:11.855Z,116
2016-02-17T10:04:11.904Z,116
2016-02-17T10:05:11.953Z,124
2016-02-17T10:06:11.987Z,124
2016-02-17T10:07:12.068Z,124
2016-02-17T10:08:12.118Z,124
2016-02-17T10:09:12.151Z,120
2016-02-17T10:10:12.201Z,120
2016-02-17T10:11:12.251Z,124
2016-02-17T10:12:12.300Z,120
2016-02-17T10:13:12.334Z,120
2016-02-17T10:14:12.384Z,124
2016-02-17T10:15:12.448Z,120
2016-02-17T10:16:12.515Z,124
2016-02-17T10:17:12.532Z,124
2016-02-17T10:18:12.598Z,124
2016-02-17T10:19:12.678Z,128
2016-02-17T10:20:12.681Z,128
2016-02-17T10:21:12.747Z,128
2016-02-17T10:22:12.842Z,128
2016-02-17T10:23:12.080Z,128
2016-02-17T10:24:12.895Z,128
2016-02-17T10:25:12.960Z,132
2016-02-17T10:26:13.010Z,128
2016-02-17T10:27:13.044Z,128
2016-02-17T10:28:13.094Z,124
2016-02-17T10:29:13.143Z,128
2016-02-17T10:30:13.192Z,124
2016-02-17T10:31:13.258Z,124
2016-02-17T10:32:13.292Z,120
2016-02-17T10:33:13.388Z,116
2016-02-17T10:34:13.391Z,120
2016-02-17T10:35:13.441Z,120
2016-02-17T10:36:13.490Z,120
2016-02-17T10:37:13.540Z,116
2016-02-17T10:38:13.589Z,116
2016-02-17T10:39:13.639Z,116
2016-02-17T10:40:13.689Z,116
2016-02-17T10:41:13.738Z,112
2016-02-17T10:42:13.788Z,112
2016-02-17T10:43:13.838Z,112
2016-02-17T10:44:13.969Z,108
2016-02-17T10:45:14.740Z,108
2016-02-17T10:46:13.665Z,108
2016-02-17T10:47:14.786Z,104
2016-02-17T10:48:13.972Z,104
2016-02-17T10:49:14.131Z,104
2016-02-17T10:50:14.180Z,100
2016-02-17T10:51:14.247Z,100
2016-02-17T10:52:14.280Z,96
2016-02-17T10:53:14.330Z,84
2016-02-17T10:54:14.380Z,88
2016-02-17T10:55:14.445Z,84
2016-02-17T10:56:14.478Z,92
2016-02-17T10:57:14.538Z,88
2016-02-17T10:58:14.588Z,88
2016-02-17T10:59:14.621Z,88
2016-02-17T11:00:14.687Z,88
2016-02-17T11:01:14.752Z,84
2016-02-17T11:02:14.629Z,88
2016-02-17T11:03:14.820Z,84
2016-02-17T11:04:14.885Z,84
2016-02-17T11:05:14.919Z,84
2016-02-17T11:06:14.984Z,84
2016-02-17T11:07:15.034Z,84
2016-02-17T11:08:15.099Z,84
2016-02-17T11:09:15.132Z,84
2016-02-17T11:10:14.433Z,84
2016-02-17T11:11:15.232Z,84
2016-02-17T11:12:15.329Z,80
2016-02-17T11:13:15.331Z,84
2016-02-17T11:14:15.365Z,76
2016-02-17T11:15:15.462Z,80
2016-02-17T11:16:15.559Z,76
2016-02-17T11:17:15.530Z,80
2016-02-17T11:18:15.579Z,76
2016-02-17T11:19:15.645Z,76
2016-02-17T11:20:15.678Z,80
2016-02-17T11:21:15.712Z,80
2016-02-17T11:22:15.793Z,76
2016-02-17T11:23:15.812Z,84
2016-02-17T11:24:15.861Z,80
2016-02-17T11:25:15.942Z,72
2016-02-17T11:26:15.961Z,76
2016-02-17T11:27:16.025Z,80
2016-02-17T11:28:16.091Z,80
2016-02-17T11:29:16.109Z,76
2016-02-17T11:30:16.175Z,80
2016-02-17T11:31:16.239Z,80
2016-02-17T11:32:16.258Z,80
2016-02-17T11:33:16.323Z,84
2016-02-17T11:34:17.373Z,84
2016-02-17T11:35:16.422Z,84
2016-02-17T11:36:16.472Z,68
2016-02-17T11:37:16.552Z,76
2016-02-17T11:38:16.555Z,60
2016-02-17T11:39:16.604Z,84
2016-02-17T11:40:16.670Z,52
2016-02-17T11:41:16.719Z,56
2016-02-17T11:42:16.769Z,48
2016-02-17T11:43:16.819Z,68
2016-02-17T11:44:16.884Z,84
2016-02-17T11:45:16.902Z,80
2016-02-17T11:46:16.983Z,60
2016-02-17T11:47:17.033Z,68
2016-02-17T11:48:17.068Z,68
2016-02-17T11:49:17.132Z,76
2016-02-17T11:50:17.165Z,76
2016-02-17T11:51:17.216Z,84
2016-02-17T11:52:17.640Z,56
2016-02-17T11:53:16.987Z,48
2016-02-17T11:54:17.412Z,52
2016-02-17T11:55:17.414Z,48
2016-02-17T11:56:17.464Z,52
2016-02-17T11:57:17.357Z,52
2016-02-17T11:58:17.562Z,48
2016-02-17T11:59:17.613Z,52
2016-02-17T12:00:17.693Z,60
2016-02-17T12:01:17.711Z,68
2016-02-17T12:02:17.762Z,76
2016-02-17T12:03:17.811Z,68
2016-02-17T12:04:17.876Z,88
2016-02-17T12:05:18.008Z,84
2016-02-17T12:06:17.964Z,84
2016-02-17T12:07:18.013Z,76
2016-02-17T12:08:18.063Z,68
2016-02-17T12:09:18.113Z,68
2016-02-17T12:10:18.163Z,60
2016-02-17T12:11:18.227Z,48
2016-02-17T12:12:18.261Z,48
2016-02-17T12:13:18.311Z,72
2016-02-17T12:14:18.361Z,76
2016-02-17T12:15:18.441Z,68
2016-02-17T12:16:18.476Z,68
2016-02-17T12:17:18.540Z,80
2016-02-17T12:18:18.575Z,52
2016-02-17T12:19:18.640Z,72
2016-02-17T12:20:18.657Z,72
2016-02-17T12:21:18.708Z,76
2016-02-17T12:22:18.757Z,76
2016-02-17T12:23:18.823Z,48
2016-02-17T12:24:18.856Z,48
2016-02-17T12:25:18.906Z,72
2016-02-17T12:26:18.987Z,72
2016-02-17T12:27:19.006Z,44
2016-02-17T12:28:19.054Z,40
2016-02-17T12:29:19.103Z,40
2016-02-17T12:30:19.170Z,40
2016-02-17T12:31:19.187Z,36
2016-02-17T12:32:19.237Z,32
2016-02-17T12:33:19.334Z,32
2016-02-17T12:34:19.352Z,32
2016-02-17T12:35:19.386Z,36
2016-02-17T12:36:19.467Z,32
2016-02-17T12:37:19.516Z,32
2016-02-17T12:38:19.550Z,28
2016-02-17T12:39:19.616Z,28
2016-02-17T12:40:19.666Z,32
2016-02-17T12:41:19.683Z,32
2016-02-17T12:42:19.764Z,36
2016-02-17T12:43:19.830Z,32
2016-02-17T12:44:19.847Z,28
2016-02-17T12:45:19.897Z,28
2016-02-17T12:46:19.963Z,28
2016-02-17T12:47:19.996Z,28
2016-02-17T12:48:20.046Z,32
2016-02-17T12:49:20.096Z,32
2016-02-17T12:50:20.207Z,36
2016-02-17T12:51:20.195Z,32
2016-02-17T12:52:20.244Z,36
2016-02-17T12:53:20.293Z,36
2016-02-17T12:54:20.359Z,32
2016-02-17T12:55:20.393Z,32
2016-02-17T12:56:20.458Z,32
2016-02-17T12:57:20.492Z,32
2016-02-17T12:58:20.573Z,28
2016-02-17T12:59:20.669Z,32
2016-02-17T13:00:20.673Z,36
2016-02-17T13:01:20.690Z,36
2016-02-17T13:02:20.770Z,36
2016-02-17T13:03:20.790Z,36
2016-02-17T13:04:20.870Z,32
2016-02-17T13:05:20.904Z,32
2016-02-17T13:06:20.938Z,32
2016-02-17T13:07:21.003Z,32
2016-02-17T13:08:21.069Z,32
2016-02-17T13:09:21.087Z,32
2016-02-17T13:10:21.167Z,32
2016-02-17T13:11:21.185Z,32
2016-02-17T13:12:21.219Z,36
2016-02-17T13:13:21.300Z,36
2016-02-17T13:14:21.397Z,36
2016-02-17T13:15:21.384Z,40
2016-02-17T13:16:21.418Z,40
2016-02-17T13:17:21.483Z,44
2016-02-17T13:18:21.533Z,44
2016-02-17T13:19:20.833Z,48
2016-02-17T13:20:21.648Z,36
2016-02-17T13:21:21.712Z,36
2016-02-17T13:22:21.732Z,32
2016-02-17T13:23:21.765Z,32
2016-02-17T13:24:21.845Z,40
2016-02-17T13:25:21.880Z,60
2016-02-17T13:26:21.914Z,48
2016-02-17T13:27:21.995Z,44
2016-02-17T13:28:22.013Z,40
2016-02-17T13:29:22.062Z,56
2016-02-17T13:30:22.128Z,52
2016-02-17T13:31:22.162Z,44
2016-02-17T13:32:22.226Z,36
2016-02-17T13:33:22.308Z,32
2016-02-17T13:34:22.310Z,36
2016-02-17T13:35:22.376Z,60
2016-02-17T13:36:22.425Z,48
2016-02-17T13:37:22.459Z,56
2016-02-17T13:38:22.524Z,60
2016-02-17T13:39:22.620Z,52
2016-02-17T13:40:22.608Z,60
2016-02-17T13:41:22.672Z,60
2016-02-17T13:42:22.738Z,60
2016-02-17T13:43:22.755Z,52
2016-02-17T13:44:22.806Z,60
2016-02-17T13:45:22.886Z,60
2016-02-17T13:46:22.905Z,60
2016-02-17T13:47:22.971Z,64
2016-02-17T13:48:22.988Z,60
2016-02-17T13:49:23.054Z,56
2016-02-17T13:50:23.135Z,60
2016-02-17T13:51:23.137Z,60
2016-02-17T13:52:22.468Z,56
2016-02-17T13:53:23.268Z,52
2016-02-17T13:54:23.145Z,60
2016-02-17T13:55:23.414Z,56
2016-02-17T13:56:23.432Z,60
2016-02-17T13:57:23.451Z,56
2016-02-17T13:58:23.500Z,60
2016-02-17T13:59:23.565Z,56
2016-02-17T14:00:23.614Z,56
2016-02-17T14:01:23.648Z,56
2016-02-17T14:02:23.698Z,60
2016-02-17T14:03:23.748Z,60
2016-02-17T14:04:23.812Z,60
2016-02-17T14:05:23.878Z,56
2016-02-17T14:06:23.897Z,56
2016-02-17T14:07:23.945Z,60
2016-02-17T14:08:24.027Z,56
2016-02-17T14:09:24.045Z,52
2016-02-17T14:10:24.125Z,56
2016-02-17T14:11:24.144Z,56
2016-02-17T14:12:24.178Z,56
2016-02-17T14:13:24.290Z,52
2016-02-17T14:14:24.294Z,52
2016-02-17T14:15:24.327Z,56
2016-02-17T14:16:24.407Z,28
2016-02-17T14:17:24.457Z,36
2016-02-17T14:18:24.491Z,52
2016-02-17T14:19:24.572Z,56
2016-02-17T14:20:24.621Z,52
2016-02-17T14:21:24.640Z,40
2016-02-17T14:22:24.690Z,24
2016-02-17T14:23:24.786Z,24
2016-02-17T14:24:24.789Z,24
2016-02-17T14:25:24.854Z,16
2016-02-17T14:26:24.903Z,32
2016-02-17T14:27:24.937Z,56
2016-02-17T14:28:25.002Z,60